MSC Paola — 9HA2581 — position and weather

sailwx.info

Track history (hours):
 
Tides and Currents Weather Stations Pressure Air Temp Water Temp Dewpoint Dewpoint Depression Visibility Wind Speed Wind Dir Waves Ship Positions

MSC Paola

Last reported at 2017-May-22 11:27 UTC. Time now 2017-May-22 15:35 UTC.
Position N 35°58' W 008°13'.

Length 243 m; draft 9.2 m.

Type: Ship (hazmat cat B). MMSI: 248931000.

Date/timePositionNaut miles runAvg speedWind from/ knotsBaromVisibWave heightAir tempDewpointWater temp
2017-May-22 11:27N 35°58' W 008°13'1320.1
2017-May-22 10:47N 35°58' W 007°56'620.3
2017-May-22 10:30N 35°58' W 007°49'1020.1
2017-May-22 10:00N 35°58' W 007°37'1019.9
2017-May-22 09:30N 35°58' W 007°25'5920.2
2017-May-22 06:35N 35°58' W 006°12'321.1
2017-May-22 06:28N 35°58' W 006°09'1221.0
2017-May-22 05:52N 35°59' W 005°53'820.8
2017-May-22 05:30N 35°58' W 005°44'1019.5
2017-May-22 05:00N 35°59' W 005°32'917.8
2017-May-22 04:30N 36°01' W 005°21'1019.7
2017-May-22 04:00N 36°03' W 005°09'17419.5
2017-May-21 19:07N 36°49' W 001°41'220.5
2017-May-21 19:00N 36°50' W 001°39'3420.9
2017-May-21 17:23N 37°11' W 001°06'820.9
2017-May-21 17:00N 37°16' W 000°59'1020.6
2017-May-21 16:30N 37°23' W 000°49'1121.5
2017-May-21 16:00N 37°31' W 000°39'1021.0
2017-May-21 15:30N 37°39' W 000°31'1021.0
2017-May-21 15:00N 37°48' W 000°24'10220.3
2017-May-21 09:59N 39°11' E 000°52'2520.5
2017-May-21 08:45N 39°29' E 001°14'520.5
2017-May-21 08:30N 39°32' E 001°19'1220.5
2017-May-21 07:54N 39°40' E 001°32'820.6
2017-May-21 07:30N 39°45' E 001°40'1020.5
2017-May-21 07:00N 39°52' E 001°50'1020.3
2017-May-21 06:30N 39°58' E 002°00'1020.2
2017-May-21 06:00N 40°05' E 002°10'1020.4
2017-May-21 05:30N 40°12' E 002°20'1020.2
2017-May-21 05:00N 40°18' E 002°30'1020.1
2017-May-21 04:31N 40°25' E 002°40'1020.2
2017-May-21 04:01N 40°31' E 002°50'1020.3
2017-May-21 03:30N 40°38' E 003°01'1020.2
2017-May-21 03:00N 40°44' E 003°12'1019.9
2017-May-21 02:31N 40°50' E 003°22'15920.1
2017-May-20 18:35N 42°32' E 006°05'219.7
2017-May-20 18:28N 42°33' E 006°07'919.7
2017-May-20 18:00N 42°39' E 006°17'1019.8
2017-May-20 17:30N 42°46' E 006°27'1020.1
2017-May-20 17:00N 42°52' E 006°38'1020.2
2017-May-20 16:30N 42°59' E 006°48'1020.2
2017-May-20 16:00N 43°05' E 006°59'1020.4
2017-May-20 15:30N 43°12' E 007°09'1121.2
2017-May-20 15:00N 43°18' E 007°20'2121.2
2017-May-20 14:00N 43°32' E 007°43'1121.1
2017-May-20 13:30N 43°39' E 007°55'2420.5
2017-May-20 12:20N 43°54' E 008°20'620.0
2017-May-20 12:00N 43°59' E 008°26'1019.6
2017-May-20 11:30N 44°06' E 008°35'1019.6
2017-May-20 11:00N 44°16' E 008°39'917.9
2017-May-20 10:30N 44°24' E 008°44'3 5.7
2017-May-20 10:00N 44°25' E 008°47'0 0.0
2017-May-20 09:30N 44°25' E 008°47'0 0.0
2017-May-20 09:00N 44°25' E 008°47'0 0.0
2017-May-20 08:29N 44°25' E 008°47'0 0.0
2017-May-20 07:59N 44°25' E 008°47'0 0.0
2017-May-20 07:27N 44°25' E 008°47'0 0.0
2017-May-20 07:00N 44°25' E 008°47'0 0.0
2017-May-20 06:28N 44°25' E 008°47'0 0.0
2017-May-20 06:00N 44°25' E 008°47'0 0.0
2017-May-20 05:28N 44°25' E 008°47'0 0.0
2017-May-20 05:00N 44°25' E 008°47'0 0.0
2017-May-20 04:29N 44°25' E 008°47'0 0.0
2017-May-20 03:58N 44°25' E 008°47'0 0.0
2017-May-20 03:27N 44°25' E 008°47'0 0.0
2017-May-20 03:00N 44°25' E 008°47'0 0.0
2017-May-20 02:30N 44°25' E 008°47'0 0.0
2017-May-20 02:00N 44°25' E 008°47'0 0.0
2017-May-20 01:28N 44°25' E 008°47'0 0.0
2017-May-20 00:59N 44°25' E 008°47'0 0.0
2017-May-20 00:29N 44°25' E 008°47'0 0.0
2017-May-19 23:59N 44°25' E 008°47'0 0.0
2017-May-19 23:30N 44°25' E 008°47'0 0.0
2017-May-19 22:59N 44°25' E 008°47'0 0.0
2017-May-19 22:29N 44°25' E 008°47'0 0.0
2017-May-19 21:59N 44°25' E 008°47'0 0.0
2017-May-19 21:24N 44°25' E 008°47'0 0.0
2017-May-19 21:00N 44°25' E 008°47'1 2.4
2017-May-19 20:31N 44°25' E 008°46'4 8.3
2017-May-19 20:00N 44°21' E 008°43'5 9.8
2017-May-19 19:30N 44°17' E 008°45'1019.5
2017-May-19 19:00N 44°10' E 008°55'1020.7
2017-May-19 18:30N 44°03' E 009°06'1020.7
2017-May-19 18:00N 43°56' E 009°16'1020.6
2017-May-19 17:30N 43°49' E 009°26'1019.8
2017-May-19 17:00N 43°42' E 009°36'1019.7
2017-May-19 16:30N 43°35' E 009°46'1019.1
2017-May-19 16:00N 43°31' E 009°58'917.0
2017-May-19 15:30N 43°30' E 010°10'611.0
2017-May-19 15:00N 43°32' E 010°17'2 2.4
2017-May-19 14:00N 43°35' E 010°18'0 0.0
2017-May-19 13:25N 43°35' E 010°18'0 0.0
2017-May-19 13:00N 43°35' E 010°18'0 0.0
2017-May-19 12:30N 43°35' E 010°18'0 0.0
2017-May-19 11:56N 43°35' E 010°18'0 0.0
2017-May-19 11:28N 43°35' E 010°18'0 0.0
2017-May-19 10:56N 43°35' E 010°18'0 0.0
2017-May-19 10:27N 43°35' E 010°18'0 0.0
2017-May-19 10:00N 43°35' E 010°18'0 0.0
2017-May-19 09:29N 43°35' E 010°18'0 0.0
2017-May-19 08:58N 43°35' E 010°18'0 0.0
2017-May-19 08:29N 43°35' E 010°18'0 0.0
2017-May-19 07:58N 43°35' E 010°18'0 0.0
2017-May-19 07:30N 43°35' E 010°18'0 0.0
2017-May-19 06:50N 43°35' E 010°18'0 0.0
2017-May-19 06:28N 43°35' E 010°18'0 0.0
2017-May-19 05:55N 43°35' E 010°18'0 0.0
2017-May-19 05:26N 43°35' E 010°18'0 0.0
2017-May-19 04:59N 43°35' E 010°18'0 0.5
2017-May-19 04:30N 43°34' E 010°18'2 4.6
2017-May-19 04:00N 43°32' E 010°17'3 5.7
2017-May-19 03:30N 43°31' E 010°14'3 6.1
2017-May-19 03:00N 43°28' E 010°12'1020.3
2017-May-19 02:30N 43°18' E 010°10'1021.0
2017-May-19 02:00N 43°07' E 010°08'1020.5
2017-May-19 01:31N 42°58' E 010°05'1020.4
2017-May-19 01:00N 42°49' E 009°58'1020.5
2017-May-19 00:30N 42°39' E 009°54'1020.5
2017-May-19 00:00N 42°29' E 009°54'1020.7
2017-May-18 23:30N 42°18' E 009°54'1020.0
2017-May-18 23:00N 42°10' E 010°01'1020.5
2017-May-18 22:30N 42°03' E 010°11'1520.9
2017-May-18 21:48N 41°53' E 010°27'621.1
2017-May-18 21:30N 41°49' E 010°33'1020.7
2017-May-18 21:00N 41°42' E 010°43'1019.7
2017-May-18 20:30N 41°37' E 010°55'1019.6
2017-May-18 20:00N 41°31' E 011°05'1020.4
2017-May-18 19:30N 41°25' E 011°15'1020.5
2017-May-18 19:00N 41°18' E 011°26'1120.5
2017-May-18 18:29N 41°12' E 011°37'1020.6
2017-May-18 17:59N 41°05' E 011°48'1020.6
2017-May-18 17:30N 40°59' E 011°58'1220.7
2017-May-18 16:55N 40°51' E 012°10'920.3
2017-May-18 16:30N 40°46' E 012°19'1120.5
2017-May-18 15:59N 40°39' E 012°30'1120.4
2017-May-18 15:27N 40°33' E 012°41'1020.7
2017-May-18 14:57N 40°26' E 012°52'2621.7
2017-May-18 13:44N 40°09' E 013°19'315.1
2017-May-18 13:30N 40°07' E 013°22'1020.4
2017-May-18 13:00N 40°01' E 013°33'1120.4
2017-May-18 12:29N 39°54' E 013°43'1020.3
2017-May-18 12:00N 39°48' E 013°53'2420.4
2017-May-18 10:50N 39°33' E 014°17'720.1
2017-May-18 10:28N 39°29' E 014°25'2319.9
2017-May-18 09:18N 39°14' E 014°48'619.3
2017-May-18 09:00N 39°10' E 014°54'1019.5
2017-May-18 08:29N 39°04' E 015°04'919.5
2017-May-18 08:00N 38°59' E 015°14'919.1
2017-May-18 07:30N 38°52' E 015°22'1019.7
2017-May-18 07:00N 38°45' E 015°31'1020.0
2017-May-18 06:30N 38°37' E 015°40'1019.4
2017-May-18 06:00N 38°30' E 015°49'511.0
2017-May-18 05:30N 38°27' E 015°54'1 2.6
2017-May-18 05:00N 38°28' E 015°55'0 0.0
2017-May-18 04:29N 38°28' E 015°55'0 0.0
2017-May-18 03:55N 38°28' E 015°55'0 0.0
2017-May-18 03:25N 38°28' E 015°55'0 0.0
2017-May-18 02:53N 38°28' E 015°55'0 0.0
2017-May-18 02:26N 38°28' E 015°55'0 0.0
2017-May-18 01:58N 38°28' E 015°55'0 0.0
2017-May-18 01:27N 38°28' E 015°55'0 0.0
2017-May-18 00:51N 38°28' E 015°55'0 0.0
2017-May-18 00:30N 38°28' E 015°55'0 0.0
2017-May-17 23:58N 38°28' E 015°55'0 0.1
2017-May-17 23:30N 38°28' E 015°55'0 0.0
2017-May-17 22:57N 38°28' E 015°55'0 0.0
2017-May-17 22:30N 38°28' E 015°55'0 0.0
2017-May-17 21:59N 38°28' E 015°55'0 0.0
2017-May-17 21:30N 38°28' E 015°55'0 0.0
2017-May-17 21:00N 38°28' E 015°55'0 0.0
2017-May-17 20:30N 38°28' E 015°55'0 0.0
2017-May-17 20:00N 38°28' E 015°55'0 0.0
2017-May-17 19:29N 38°28' E 015°55'0 0.0
2017-May-17 18:54N 38°28' E 015°55'0 0.0
2017-May-17 18:08N 38°28' E 015°55'0 0.0
2017-May-17 17:59N 38°28' E 015°55'0 0.0
2017-May-17 17:30N 38°28' E 015°55'0 0.0
2017-May-17 16:52N 38°28' E 015°55'0 0.0
2017-May-17 16:14N 38°28' E 015°55'0 0.0
2017-May-17 15:59N 38°28' E 015°55'0 0.0
2017-May-17 15:28N 38°28' E 015°55'0 0.0
2017-May-17 14:55N 38°28' E 015°55'1 1.4
2017-May-17 14:01N 38°27' E 015°54'2 3.5
2017-May-17 13:30N 38°27' E 015°52'0 0.2
2017-May-17 13:00N 38°27' E 015°52'2 4.6
2017-May-17 12:30N 38°30' E 015°51'1 1.3
2017-May-17 12:00N 38°30' E 015°51'1 1.1
2017-May-17 11:30N 38°30' E 015°50'2 4.4
2017-May-17 11:00N 38°32' E 015°48'5 9.9
2017-May-17 10:30N 38°36' E 015°45'0 0.7
2017-May-17 10:00N 38°35' E 015°45'0 0.8
2017-May-17 09:30N 38°35' E 015°45'0 0.7
2017-May-17 09:00N 38°35' E 015°45'0 0.5
2017-May-17 08:30N 38°35' E 015°45'1 2.2
2017-May-17 08:00N 38°36' E 015°44'611.4
2017-May-17 07:29N 38°40' E 015°40'612.2
2017-May-17 06:59N 38°46' E 015°35'612.3
2017-May-17 06:29N 38°51' E 015°31'612.5
2017-May-17 06:00N 38°56' E 015°27'713.5
2017-May-17 05:30N 39°02' E 015°22'714.4
2017-May-17 05:00N 39°07' E 015°17'113 2.9
2017-May-15 14:03N 40°50' E 014°17'0 0.0
2017-May-15 13:26N 40°50' E 014°17'0 0.0
2017-May-15 12:29N 40°50' E 014°17'0 0.0
2017-May-15 11:57N 40°50' E 014°17'0 0.0
2017-May-15 11:30N 40°50' E 014°17'0 0.0
2017-May-15 10:59N 40°50' E 014°17'4 0.3
2017-May-14 20:32N 40°46' E 014°18'010.2
2017-May-14 20:30N 40°46' E 014°18'2 3.3
2017-May-14 20:00N 40°45' E 014°17'0 0.8
2017-May-14 19:30N 40°45' E 014°17'2 1.3
2017-May-14 17:59N 40°44' E 014°14'4 8.5
2017-May-14 17:30N 40°40' E 014°11'0 0.5
2017-May-14 17:00N 40°41' E 014°11'0 1.0
2017-May-14 16:30N 40°41' E 014°10'1 1.2
2017-May-14 15:53N 40°41' E 014°09'0 1.2
2017-May-14 15:30N 40°41' E 014°09'1 1.2
2017-May-14 15:00N 40°41' E 014°08'1 1.0
2017-May-14 14:30N 40°41' E 014°07'0 0.7
2017-May-14 13:54N 40°41' E 014°07'0 1.0
2017-May-14 13:30N 40°40' E 014°06'1 2.6
2017-May-14 13:00N 40°39' E 014°06'4 7.9
2017-May-14 12:30N 40°36' E 014°03'4 8.3
2017-May-14 12:00N 40°34' E 013°58'4 8.2
2017-May-14 11:30N 40°32' E 013°53'4 8.3
2017-May-14 11:00N 40°30' E 013°48'4 8.4
2017-May-14 10:30N 40°28' E 013°44'4 8.3
2017-May-14 10:00N 40°26' E 013°39'4 8.3
2017-May-14 09:28N 40°24' E 013°34'4 8.4
2017-May-14 09:00N 40°22' E 013°29'5 9.2
2017-May-14 08:30N 40°20' E 013°24'510.6
2017-May-14 08:00N 40°17' E 013°18'510.5
2017-May-14 07:30N 40°15' E 013°11'610.4
2017-May-14 06:58N 40°12' E 013°05'3010.3
2017-May-14 04:01N 39°57' E 012°31'010.5
2017-May-14 04:00N 39°57' E 012°30'3810.2
2017-May-14 00:17N 39°38' E 011°48'310.3
2017-May-13 23:59N 39°36' E 011°44'510.1
2017-May-13 23:30N 39°34' E 011°39'510.0
2017-May-13 23:00N 39°31' E 011°33'510.0
2017-May-13 22:30N 39°29' E 011°28'5 9.9
2017-May-13 22:00N 39°27' E 011°22'5 9.9
2017-May-13 21:29N 39°24' E 011°16'510.0
2017-May-13 21:00N 39°22' E 011°11'510.1
2017-May-13 20:30N 39°19' E 011°05'710.1
2017-May-13 19:46N 39°15' E 010°57'4610.8
2017-May-13 15:32N 38°53' E 010°06'118.3
2017-May-13 15:30N 38°53' E 010°05'1020.3
2017-May-13 15:00N 38°48' E 009°54'1121.0
2017-May-13 14:29N 38°43' E 009°41'2020.5
2017-May-13 13:30N 38°39' E 009°16'3012.9
2017-May-13 11:12N 38°32' E 008°39'312.5
2017-May-13 10:58N 38°31' E 008°35'  
Track history (hours):
 
Tides and Currents Weather Stations Pressure Air Temp Water Temp Dewpoint Dewpoint Depression Visibility Wind Speed Wind Dir Waves Ship Positions

MSC Paola

Last reported at 2017-May-22 11:27 UTC. Time now 2017-May-22 15:35 UTC.
Position N 35°58' W 008°13'.

Length 243 m; draft 9.2 m.

Type: Ship (hazmat cat B). MMSI: 248931000.

Date/timePositionNaut miles runAvg speedWind from/ knotsBaromVisibWave heightAir tempDewpointWater temp
2017-May-22 11:27N 35°58' W 008°13'1320.1
2017-May-22 10:47N 35°58' W 007°56'620.3
2017-May-22 10:30N 35°58' W 007°49'1020.1
2017-May-22 10:00N 35°58' W 007°37'1019.9
2017-May-22 09:30N 35°58' W 007°25'5920.2
2017-May-22 06:35N 35°58' W 006°12'321.1
2017-May-22 06:28N 35°58' W 006°09'1221.0
2017-May-22 05:52N 35°59' W 005°53'820.8
2017-May-22 05:30N 35°58' W 005°44'1019.5
2017-May-22 05:00N 35°59' W 005°32'917.8
2017-May-22 04:30N 36°01' W 005°21'1019.7
2017-May-22 04:00N 36°03' W 005°09'17419.5
2017-May-21 19:07N 36°49' W 001°41'220.5
2017-May-21 19:00N 36°50' W 001°39'3420.9
2017-May-21 17:23N 37°11' W 001°06'820.9
2017-May-21 17:00N 37°16' W 000°59'1020.6
2017-May-21 16:30N 37°23' W 000°49'1121.5
2017-May-21 16:00N 37°31' W 000°39'1021.0
2017-May-21 15:30N 37°39' W 000°31'1021.0
2017-May-21 15:00N 37°48' W 000°24'10220.3
2017-May-21 09:59N 39°11' E 000°52'2520.5
2017-May-21 08:45N 39°29' E 001°14'520.5
2017-May-21 08:30N 39°32' E 001°19'1220.5
2017-May-21 07:54N 39°40' E 001°32'820.6
2017-May-21 07:30N 39°45' E 001°40'1020.5
2017-May-21 07:00N 39°52' E 001°50'1020.3
2017-May-21 06:30N 39°58' E 002°00'1020.2
2017-May-21 06:00N 40°05' E 002°10'1020.4
2017-May-21 05:30N 40°12' E 002°20'1020.2
2017-May-21 05:00N 40°18' E 002°30'1020.1
2017-May-21 04:31N 40°25' E 002°40'1020.2
2017-May-21 04:01N 40°31' E 002°50'1020.3
2017-May-21 03:30N 40°38' E 003°01'1020.2
2017-May-21 03:00N 40°44' E 003°12'1019.9
2017-May-21 02:31N 40°50' E 003°22'15920.1
2017-May-20 18:35N 42°32' E 006°05'219.7
2017-May-20 18:28N 42°33' E 006°07'919.7
2017-May-20 18:00N 42°39' E 006°17'1019.8
2017-May-20 17:30N 42°46' E 006°27'1020.1
2017-May-20 17:00N 42°52' E 006°38'1020.2
2017-May-20 16:30N 42°59' E 006°48'1020.2
2017-May-20 16:00N 43°05' E 006°59'1020.4
2017-May-20 15:30N 43°12' E 007°09'1121.2
2017-May-20 15:00N 43°18' E 007°20'2121.2
2017-May-20 14:00N 43°32' E 007°43'1121.1
2017-May-20 13:30N 43°39' E 007°55'2420.5
2017-May-20 12:20N 43°54' E 008°20'620.0
2017-May-20 12:00N 43°59' E 008°26'1019.6
2017-May-20 11:30N 44°06' E 008°35'1019.6
2017-May-20 11:00N 44°16' E 008°39'917.9
2017-May-20 10:30N 44°24' E 008°44'3 5.7
2017-May-20 10:00N 44°25' E 008°47'0 0.0
2017-May-20 09:30N 44°25' E 008°47'0 0.0
2017-May-20 09:00N 44°25' E 008°47'0 0.0
2017-May-20 08:29N 44°25' E 008°47'0 0.0
2017-May-20 07:59N 44°25' E 008°47'0 0.0
2017-May-20 07:27N 44°25' E 008°47'0 0.0
2017-May-20 07:00N 44°25' E 008°47'0 0.0
2017-May-20 06:28N 44°25' E 008°47'0 0.0
2017-May-20 06:00N 44°25' E 008°47'0 0.0
2017-May-20 05:28N 44°25' E 008°47'0 0.0
2017-May-20 05:00N 44°25' E 008°47'0 0.0
2017-May-20 04:29N 44°25' E 008°47'0 0.0
2017-May-20 03:58N 44°25' E 008°47'0 0.0
2017-May-20 03:27N 44°25' E 008°47'0 0.0
2017-May-20 03:00N 44°25' E 008°47'0 0.0
2017-May-20 02:30N 44°25' E 008°47'0 0.0
2017-May-20 02:00N 44°25' E 008°47'0 0.0
2017-May-20 01:28N 44°25' E 008°47'0 0.0
2017-May-20 00:59N 44°25' E 008°47'0 0.0
2017-May-20 00:29N 44°25' E 008°47'0 0.0
2017-May-19 23:59N 44°25' E 008°47'0 0.0
2017-May-19 23:30N 44°25' E 008°47'0 0.0
2017-May-19 22:59N 44°25' E 008°47'0 0.0
2017-May-19 22:29N 44°25' E 008°47'0 0.0
2017-May-19 21:59N 44°25' E 008°47'0 0.0
2017-May-19 21:24N 44°25' E 008°47'0 0.0
2017-May-19 21:00N 44°25' E 008°47'1 2.4
2017-May-19 20:31N 44°25' E 008°46'4 8.3
2017-May-19 20:00N 44°21' E 008°43'5 9.8
2017-May-19 19:30N 44°17' E 008°45'1019.5
2017-May-19 19:00N 44°10' E 008°55'1020.7
2017-May-19 18:30N 44°03' E 009°06'1020.7
2017-May-19 18:00N 43°56' E 009°16'1020.6
2017-May-19 17:30N 43°49' E 009°26'1019.8
2017-May-19 17:00N 43°42' E 009°36'1019.7
2017-May-19 16:30N 43°35' E 009°46'1019.1
2017-May-19 16:00N 43°31' E 009°58'917.0
2017-May-19 15:30N 43°30' E 010°10'611.0
2017-May-19 15:00N 43°32' E 010°17'2 2.4
2017-May-19 14:00N 43°35' E 010°18'0 0.0
2017-May-19 13:25N 43°35' E 010°18'0 0.0
2017-May-19 13:00N 43°35' E 010°18'0 0.0
2017-May-19 12:30N 43°35' E 010°18'0 0.0
2017-May-19 11:56N 43°35' E 010°18'0 0.0
2017-May-19 11:28N 43°35' E 010°18'0 0.0
2017-May-19 10:56N 43°35' E 010°18'0 0.0
2017-May-19 10:27N 43°35' E 010°18'0 0.0
2017-May-19 10:00N 43°35' E 010°18'0 0.0
2017-May-19 09:29N 43°35' E 010°18'0 0.0
2017-May-19 08:58N 43°35' E 010°18'0 0.0
2017-May-19 08:29N 43°35' E 010°18'0 0.0
2017-May-19 07:58N 43°35' E 010°18'0 0.0
2017-May-19 07:30N 43°35' E 010°18'0 0.0
2017-May-19 06:50N 43°35' E 010°18'0 0.0
2017-May-19 06:28N 43°35' E 010°18'0 0.0
2017-May-19 05:55N 43°35' E 010°18'0 0.0
2017-May-19 05:26N 43°35' E 010°18'0 0.0
2017-May-19 04:59N 43°35' E 010°18'0 0.5
2017-May-19 04:30N 43°34' E 010°18'2 4.6
2017-May-19 04:00N 43°32' E 010°17'3 5.7
2017-May-19 03:30N 43°31' E 010°14'3 6.1
2017-May-19 03:00N 43°28' E 010°12'1020.3
2017-May-19 02:30N 43°18' E 010°10'1021.0
2017-May-19 02:00N 43°07' E 010°08'1020.5
2017-May-19 01:31N 42°58' E 010°05'1020.4
2017-May-19 01:00N 42°49' E 009°58'1020.5
2017-May-19 00:30N 42°39' E 009°54'1020.5
2017-May-19 00:00N 42°29' E 009°54'1020.7
2017-May-18 23:30N 42°18' E 009°54'1020.0
2017-May-18 23:00N 42°10' E 010°01'1020.5
2017-May-18 22:30N 42°03' E 010°11'1520.9
2017-May-18 21:48N 41°53' E 010°27'621.1
2017-May-18 21:30N 41°49' E 010°33'1020.7
2017-May-18 21:00N 41°42' E 010°43'1019.7
2017-May-18 20:30N 41°37' E 010°55'1019.6
2017-May-18 20:00N 41°31' E 011°05'1020.4
2017-May-18 19:30N 41°25' E 011°15'1020.5
2017-May-18 19:00N 41°18' E 011°26'1120.5
2017-May-18 18:29N 41°12' E 011°37'1020.6
2017-May-18 17:59N 41°05' E 011°48'1020.6
2017-May-18 17:30N 40°59' E 011°58'1220.7
2017-May-18 16:55N 40°51' E 012°10'920.3
2017-May-18 16:30N 40°46' E 012°19'1120.5
2017-May-18 15:59N 40°39' E 012°30'1120.4
2017-May-18 15:27N 40°33' E 012°41'1020.7
2017-May-18 14:57N 40°26' E 012°52'2621.7
2017-May-18 13:44N 40°09' E 013°19'315.1
2017-May-18 13:30N 40°07' E 013°22'1020.4
2017-May-18 13:00N 40°01' E 013°33'1120.4
2017-May-18 12:29N 39°54' E 013°43'1020.3
2017-May-18 12:00N 39°48' E 013°53'2420.4
2017-May-18 10:50N 39°33' E 014°17'720.1
2017-May-18 10:28N 39°29' E 014°25'2319.9
2017-May-18 09:18N 39°14' E 014°48'619.3
2017-May-18 09:00N 39°10' E 014°54'1019.5
2017-May-18 08:29N 39°04' E 015°04'919.5
2017-May-18 08:00N 38°59' E 015°14'919.1
2017-May-18 07:30N 38°52' E 015°22'1019.7
2017-May-18 07:00N 38°45' E 015°31'1020.0
2017-May-18 06:30N 38°37' E 015°40'1019.4
2017-May-18 06:00N 38°30' E 015°49'511.0
2017-May-18 05:30N 38°27' E 015°54'1 2.6
2017-May-18 05:00N 38°28' E 015°55'0 0.0
2017-May-18 04:29N 38°28' E 015°55'0 0.0
2017-May-18 03:55N 38°28' E 015°55'0 0.0
2017-May-18 03:25N 38°28' E 015°55'0 0.0
2017-May-18 02:53N 38°28' E 015°55'0 0.0
2017-May-18 02:26N 38°28' E 015°55'0 0.0
2017-May-18 01:58N 38°28' E 015°55'0 0.0
2017-May-18 01:27N 38°28' E 015°55'0 0.0
2017-May-18 00:51N 38°28' E 015°55'0 0.0
2017-May-18 00:30N 38°28' E 015°55'0 0.0
2017-May-17 23:58N 38°28' E 015°55'0 0.1
2017-May-17 23:30N 38°28' E 015°55'0 0.0
2017-May-17 22:57N 38°28' E 015°55'0 0.0
2017-May-17 22:30N 38°28' E 015°55'0 0.0
2017-May-17 21:59N 38°28' E 015°55'0 0.0
2017-May-17 21:30N 38°28' E 015°55'0 0.0
2017-May-17 21:00N 38°28' E 015°55'0 0.0
2017-May-17 20:30N 38°28' E 015°55'0 0.0
2017-May-17 20:00N 38°28' E 015°55'0 0.0
2017-May-17 19:29N 38°28' E 015°55'0 0.0
2017-May-17 18:54N 38°28' E 015°55'0 0.0
2017-May-17 18:08N 38°28' E 015°55'0 0.0
2017-May-17 17:59N 38°28' E 015°55'0 0.0
2017-May-17 17:30N 38°28' E 015°55'0 0.0
2017-May-17 16:52N 38°28' E 015°55'0 0.0
2017-May-17 16:14N 38°28' E 015°55'0 0.0
2017-May-17 15:59N 38°28' E 015°55'0 0.0
2017-May-17 15:28N 38°28' E 015°55'0 0.0
2017-May-17 14:55N 38°28' E 015°55'1 1.4
2017-May-17 14:01N 38°27' E 015°54'2 3.5
2017-May-17 13:30N 38°27' E 015°52'0 0.2
2017-May-17 13:00N 38°27' E 015°52'2 4.6
2017-May-17 12:30N 38°30' E 015°51'1 1.3
2017-May-17 12:00N 38°30' E 015°51'1 1.1
2017-May-17 11:30N 38°30' E 015°50'2 4.4
2017-May-17 11:00N 38°32' E 015°48'5 9.9
2017-May-17 10:30N 38°36' E 015°45'0 0.7
2017-May-17 10:00N 38°35' E 015°45'0 0.8
2017-May-17 09:30N 38°35' E 015°45'0 0.7
2017-May-17 09:00N 38°35' E 015°45'0 0.5
2017-May-17 08:30N 38°35' E 015°45'1 2.2
2017-May-17 08:00N 38°36' E 015°44'611.4
2017-May-17 07:29N 38°40' E 015°40'612.2
2017-May-17 06:59N 38°46' E 015°35'612.3
2017-May-17 06:29N 38°51' E 015°31'612.5
2017-May-17 06:00N 38°56' E 015°27'713.5
2017-May-17 05:30N 39°02' E 015°22'714.4
2017-May-17 05:00N 39°07' E 015°17'113 2.9
2017-May-15 14:03N 40°50' E 014°17'0 0.0
2017-May-15 13:26N 40°50' E 014°17'0 0.0
2017-May-15 12:29N 40°50' E 014°17'0 0.0
2017-May-15 11:57N 40°50' E 014°17'0 0.0
2017-May-15 11:30N 40°50' E 014°17'0 0.0
2017-May-15 10:59N 40°50' E 014°17'4 0.3
2017-May-14 20:32N 40°46' E 014°18'010.2
2017-May-14 20:30N 40°46' E 014°18'2 3.3
2017-May-14 20:00N 40°45' E 014°17'0 0.8
2017-May-14 19:30N 40°45' E 014°17'2 1.3
2017-May-14 17:59N 40°44' E 014°14'4 8.5
2017-May-14 17:30N 40°40' E 014°11'0 0.5
2017-May-14 17:00N 40°41' E 014°11'0 1.0
2017-May-14 16:30N 40°41' E 014°10'1 1.2
2017-May-14 15:53N 40°41' E 014°09'0 1.2
2017-May-14 15:30N 40°41' E 014°09'1 1.2
2017-May-14 15:00N 40°41' E 014°08'1 1.0
2017-May-14 14:30N 40°41' E 014°07'0 0.7
2017-May-14 13:54N 40°41' E 014°07'0 1.0
2017-May-14 13:30N 40°40' E 014°06'1 2.6
2017-May-14 13:00N 40°39' E 014°06'4 7.9
2017-May-14 12:30N 40°36' E 014°03'4 8.3
2017-May-14 12:00N 40°34' E 013°58'4 8.2
2017-May-14 11:30N 40°32' E 013°53'4 8.3
2017-May-14 11:00N 40°30' E 013°48'4 8.4
2017-May-14 10:30N 40°28' E 013°44'4 8.3
2017-May-14 10:00N 40°26' E 013°39'4 8.3
2017-May-14 09:28N 40°24' E 013°34'4 8.4
2017-May-14 09:00N 40°22' E 013°29'5 9.2
2017-May-14 08:30N 40°20' E 013°24'510.6
2017-May-14 08:00N 40°17' E 013°18'510.5
2017-May-14 07:30N 40°15' E 013°11'610.4
2017-May-14 06:58N 40°12' E 013°05'3010.3
2017-May-14 04:01N 39°57' E 012°31'010.5
2017-May-14 04:00N 39°57' E 012°30'3810.2
2017-May-14 00:17N 39°38' E 011°48'310.3
2017-May-13 23:59N 39°36' E 011°44'510.1
2017-May-13 23:30N 39°34' E 011°39'510.0
2017-May-13 23:00N 39°31' E 011°33'510.0
2017-May-13 22:30N 39°29' E 011°28'5 9.9
2017-May-13 22:00N 39°27' E 011°22'5 9.9
2017-May-13 21:29N 39°24' E 011°16'510.0
2017-May-13 21:00N 39°22' E 011°11'510.1
2017-May-13 20:30N 39°19' E 011°05'710.1
2017-May-13 19:46N 39°15' E 010°57'4610.8
2017-May-13 15:32N 38°53' E 010°06'118.3
2017-May-13 15:30N 38°53' E 010°05'1020.3
2017-May-13 15:00N 38°48' E 009°54'1121.0
2017-May-13 14:29N 38°43' E 009°41'2020.5
2017-May-13 13:30N 38°39' E 009°16'3012.9
2017-May-13 11:12N 38°32' E 008°39'312.5
2017-May-13 10:58N 38°31' E 008°35'  

Dump ship's entire track history